sensor_id;sensor_type;location;lat;lon;timestamp;P1;durP1;ratioP1;P2;durP2;ratioP2
49131;SDS011;35149;51.196;6.204;2023-06-14T00:00:41;6.22;;;5.63;;
49131;SDS011;35149;51.196;6.204;2023-06-14T00:03:13;6.40;;;5.80;;
49131;SDS011;35149;51.196;6.204;2023-06-14T00:05:43;5.18;;;4.68;;
49131;SDS011;35149;51.196;6.204;2023-06-14T00:08:13;6.18;;;5.57;;
49131;SDS011;35149;51.196;6.204;2023-06-14T00:10:40;5.43;;;4.93;;
49131;SDS011;35149;51.196;6.204;2023-06-14T00:13:08;6.97;;;5.22;;
49131;SDS011;35149;51.196;6.204;2023-06-14T00:15:40;6.07;;;5.53;;
49131;SDS011;35149;51.196;6.204;2023-06-14T00:18:10;7.05;;;5.90;;
49131;SDS011;35149;51.196;6.204;2023-06-14T00:20:40;6.63;;;5.28;;
49131;SDS011;35149;51.196;6.204;2023-06-14T00:23:12;5.70;;;5.07;;
49131;SDS011;35149;51.196;6.204;2023-06-14T00:25:39;5.25;;;4.85;;
49131;SDS011;35149;51.196;6.204;2023-06-14T00:28:07;7.57;;;5.55;;
49131;SDS011;35149;51.196;6.204;2023-06-14T00:30:36;6.00;;;5.43;;
49131;SDS011;35149;51.196;6.204;2023-06-14T00:33:05;7.07;;;5.57;;
49131;SDS011;35149;51.196;6.204;2023-06-14T00:35:32;6.72;;;5.60;;
49131;SDS011;35149;51.196;6.204;2023-06-14T00:38:02;7.65;;;6.18;;
49131;SDS011;35149;51.196;6.204;2023-06-14T00:40:29;9.35;;;6.15;;
49131;SDS011;35149;51.196;6.204;2023-06-14T00:42:56;6.18;;;5.57;;
49131;SDS011;35149;51.196;6.204;2023-06-14T00:45:27;6.30;;;5.70;;
49131;SDS011;35149;51.196;6.204;2023-06-14T00:47:54;5.63;;;5.13;;
49131;SDS011;35149;51.196;6.204;2023-06-14T00:50:22;5.82;;;5.20;;
49131;SDS011;35149;51.196;6.204;2023-06-14T00:52:52;5.32;;;4.93;;
49131;SDS011;35149;51.196;6.204;2023-06-14T00:55:18;5.93;;;5.35;;
49131;SDS011;35149;51.196;6.204;2023-06-14T00:57:48;6.43;;;5.82;;
49131;SDS011;35149;51.196;6.204;2023-06-14T01:00:15;6.72;;;6.00;;
49131;SDS011;35149;51.196;6.204;2023-06-14T01:02:46;6.53;;;5.85;;
49131;SDS011;35149;51.196;6.204;2023-06-14T01:05:13;8.43;;;5.97;;
49131;SDS011;35149;51.196;6.204;2023-06-14T01:13:08;6.45;;;5.72;;
49131;SDS011;35149;51.196;6.204;2023-06-14T01:15:43;6.22;;;5.68;;
49131;SDS011;35149;51.196;6.204;2023-06-14T01:18:13;5.53;;;5.13;;
49131;SDS011;35149;51.196;6.204;2023-06-14T01:20:46;8.02;;;6.53;;
49131;SDS011;35149;51.196;6.204;2023-06-14T01:23:19;6.13;;;5.53;;
49131;SDS011;35149;51.196;6.204;2023-06-14T01:25:47;5.68;;;5.18;;
49131;SDS011;35149;51.196;6.204;2023-06-14T01:28:20;6.07;;;5.57;;
49131;SDS011;35149;51.196;6.204;2023-06-14T01:30:53;6.05;;;5.45;;
49131;SDS011;35149;51.196;6.204;2023-06-14T01:33:24;6.07;;;5.50;;
49131;SDS011;35149;51.196;6.204;2023-06-14T01:35:59;6.13;;;5.63;;
49131;SDS011;35149;51.196;6.204;2023-06-14T01:38:31;6.63;;;5.50;;
49131;SDS011;35149;51.196;6.204;2023-06-14T01:41:02;5.60;;;5.10;;
49131;SDS011;35149;51.196;6.204;2023-06-14T01:43:38;6.30;;;5.72;;
49131;SDS011;35149;51.196;6.204;2023-06-14T01:46:09;6.28;;;5.55;;
49131;SDS011;35149;51.196;6.204;2023-06-14T01:48:39;6.45;;;5.85;;
49131;SDS011;35149;51.196;6.204;2023-06-14T01:51:06;6.68;;;5.97;;
49131;SDS011;35149;51.196;6.204;2023-06-14T01:53:33;7.03;;;6.32;;
49131;SDS011;35149;51.196;6.204;2023-06-14T01:56:07;7.75;;;6.50;;
49131;SDS011;35149;51.196;6.204;2023-06-14T01:58:38;6.57;;;5.97;;
49131;SDS011;35149;51.196;6.204;2023-06-14T02:01:12;8.93;;;7.28;;
49131;SDS011;35149;51.196;6.204;2023-06-14T02:03:44;7.40;;;5.87;;
49131;SDS011;35149;51.196;6.204;2023-06-14T02:06:14;8.15;;;5.90;;
49131;SDS011;35149;51.196;6.204;2023-06-14T02:08:44;6.55;;;5.75;;
49131;SDS011;35149;51.196;6.204;2023-06-14T02:11:23;6.88;;;5.75;;
49131;SDS011;35149;51.196;6.204;2023-06-14T02:13:49;7.03;;;6.32;;
49131;SDS011;35149;51.196;6.204;2023-06-14T02:16:16;6.88;;;6.20;;
49131;SDS011;35149;51.196;6.204;2023-06-14T02:18:43;5.65;;;5.15;;
49131;SDS011;35149;51.196;6.204;2023-06-14T02:21:10;5.82;;;5.30;;
49131;SDS011;35149;51.196;6.204;2023-06-14T02:23:36;6.05;;;5.50;;
49131;SDS011;35149;51.196;6.204;2023-06-14T02:26:06;6.53;;;5.28;;
49131;SDS011;35149;51.196;6.204;2023-06-14T02:28:33;6.05;;;5.43;;
49131;SDS011;35149;51.196;6.204;2023-06-14T02:31:04;6.65;;;6.05;;
49131;SDS011;35149;51.196;6.204;2023-06-14T02:33:30;6.50;;;5.90;;
49131;SDS011;35149;51.196;6.204;2023-06-14T02:35:57;6.18;;;5.68;;
49131;SDS011;35149;51.196;6.204;2023-06-14T02:38:24;6.82;;;6.22;;
49131;SDS011;35149;51.196;6.204;2023-06-14T02:40:51;6.10;;;5.50;;
49131;SDS011;35149;51.196;6.204;2023-06-14T02:43:20;6.95;;;6.22;;
49131;SDS011;35149;51.196;6.204;2023-06-14T02:45:49;6.43;;;5.78;;
49131;SDS011;35149;51.196;6.204;2023-06-14T02:48:19;7.32;;;6.35;;
49131;SDS011;35149;51.196;6.204;2023-06-14T02:50:46;6.53;;;5.88;;
49131;SDS011;35149;51.196;6.204;2023-06-14T02:53:13;6.55;;;5.95;;
49131;SDS011;35149;51.196;6.204;2023-06-14T02:55:45;6.35;;;5.80;;
49131;SDS011;35149;51.196;6.204;2023-06-14T02:58:16;6.78;;;6.07;;
49131;SDS011;35149;51.196;6.204;2023-06-14T03:00:45;7.05;;;6.20;;
49131;SDS011;35149;51.196;6.204;2023-06-14T03:03:16;7.40;;;5.90;;
49131;SDS011;35149;51.196;6.204;2023-06-14T03:05:50;6.72;;;6.03;;
49131;SDS011;35149;51.196;6.204;2023-06-14T03:08:23;6.53;;;5.90;;
49131;SDS011;35149;51.196;6.204;2023-06-14T03:10:58;8.25;;;6.20;;
49131;SDS011;35149;51.196;6.204;2023-06-14T03:13:29;6.82;;;6.13;;
49131;SDS011;35149;51.196;6.204;2023-06-14T03:15:58;8.35;;;5.82;;
49131;SDS011;35149;51.196;6.204;2023-06-14T03:18:33;6.53;;;5.93;;
49131;SDS011;35149;51.196;6.204;2023-06-14T03:21:02;6.68;;;5.75;;
49131;SDS011;35149;51.196;6.204;2023-06-14T03:23:36;7.05;;;5.85;;
49131;SDS011;35149;51.196;6.204;2023-06-14T03:26:03;7.47;;;6.78;;
49131;SDS011;35149;51.196;6.204;2023-06-14T03:28:31;6.63;;;5.93;;
49131;SDS011;35149;51.196;6.204;2023-06-14T03:30:59;6.32;;;5.78;;
49131;SDS011;35149;51.196;6.204;2023-06-14T03:33:29;7.63;;;6.18;;
49131;SDS011;35149;51.196;6.204;2023-06-14T03:35:57;5.97;;;5.43;;
49131;SDS011;35149;51.196;6.204;2023-06-14T03:38:28;8.65;;;6.10;;
49131;SDS011;35149;51.196;6.204;2023-06-14T03:40:58;7.07;;;6.22;;
49131;SDS011;35149;51.196;6.204;2023-06-14T03:43:25;7.55;;;5.60;;
49131;SDS011;35149;51.196;6.204;2023-06-14T03:45:54;6.43;;;5.85;;
49131;SDS011;35149;51.196;6.204;2023-06-14T03:48:22;6.25;;;5.70;;
49131;SDS011;35149;51.196;6.204;2023-06-14T03:50:52;14.57;;;6.38;;
49131;SDS011;35149;51.196;6.204;2023-06-14T03:53:26;6.57;;;5.90;;
49131;SDS011;35149;51.196;6.204;2023-06-14T03:58:36;5.80;;;5.25;;
49131;SDS011;35149;51.196;6.204;2023-06-14T04:01:03;6.93;;;5.72;;
49131;SDS011;35149;51.196;6.204;2023-06-14T04:03:30;8.35;;;7.65;;
49131;SDS011;35149;51.196;6.204;2023-06-14T04:06:00;6.47;;;5.72;;
49131;SDS011;35149;51.196;6.204;2023-06-14T04:08:27;9.38;;;7.13;;
49131;SDS011;35149;51.196;6.204;2023-06-14T04:10:57;6.75;;;6.15;;
49131;SDS011;35149;51.196;6.204;2023-06-14T04:13:23;6.43;;;5.90;;
49131;SDS011;35149;51.196;6.204;2023-06-14T04:15:53;7.00;;;6.10;;
49131;SDS011;35149;51.196;6.204;2023-06-14T04:18:27;6.32;;;5.75;;
49131;SDS011;35149;51.196;6.204;2023-06-14T04:20:56;7.05;;;6.18;;
49131;SDS011;35149;51.196;6.204;2023-06-14T04:23:23;6.72;;;6.03;;
49131;SDS011;35149;51.196;6.204;2023-06-14T04:25:50;10.07;;;6.10;;
49131;SDS011;35149;51.196;6.204;2023-06-14T04:28:16;8.65;;;5.97;;
49131;SDS011;35149;51.196;6.204;2023-06-14T04:30:45;8.00;;;7.28;;
49131;SDS011;35149;51.196;6.204;2023-06-14T04:33:14;6.57;;;5.93;;
49131;SDS011;35149;51.196;6.204;2023-06-14T04:35:41;7.32;;;6.72;;
49131;SDS011;35149;51.196;6.204;2023-06-14T04:38:08;8.07;;;6.78;;
49131;SDS011;35149;51.196;6.204;2023-06-14T04:40:36;7.63;;;6.88;;
49131;SDS011;35149;51.196;6.204;2023-06-14T04:43:10;6.90;;;6.00;;
49131;SDS011;35149;51.196;6.204;2023-06-14T04:45:44;7.13;;;6.43;;
49131;SDS011;35149;51.196;6.204;2023-06-14T04:48:12;8.07;;;6.50;;
49131;SDS011;35149;51.196;6.204;2023-06-14T04:50:39;7.35;;;6.63;;
49131;SDS011;35149;51.196;6.204;2023-06-14T04:53:07;7.45;;;6.60;;
49131;SDS011;35149;51.196;6.204;2023-06-14T04:55:35;6.93;;;6.22;;
49131;SDS011;35149;51.196;6.204;2023-06-14T04:58:03;7.43;;;6.43;;
49131;SDS011;35149;51.196;6.204;2023-06-14T05:00:29;7.60;;;6.90;;
49131;SDS011;35149;51.196;6.204;2023-06-14T05:02:56;7.20;;;6.50;;
49131;SDS011;35149;51.196;6.204;2023-06-14T05:05:23;8.10;;;7.30;;
49131;SDS011;35149;51.196;6.204;2023-06-14T05:07:51;8.38;;;7.25;;
49131;SDS011;35149;51.196;6.204;2023-06-14T05:10:17;9.00;;;6.85;;
49131;SDS011;35149;51.196;6.204;2023-06-14T05:12:45;7.75;;;6.75;;
49131;SDS011;35149;51.196;6.204;2023-06-14T05:15:17;9.57;;;7.00;;
49131;SDS011;35149;51.196;6.204;2023-06-14T05:17:45;7.75;;;6.80;;
49131;SDS011;35149;51.196;6.204;2023-06-14T05:20:19;8.27;;;7.18;;
49131;SDS011;35149;51.196;6.204;2023-06-14T05:22:45;9.50;;;7.07;;
49131;SDS011;35149;51.196;6.204;2023-06-14T05:25:12;6.97;;;6.22;;
49131;SDS011;35149;51.196;6.204;2023-06-14T05:27:39;6.93;;;6.10;;
49131;SDS011;35149;51.196;6.204;2023-06-14T05:30:08;6.90;;;5.65;;
49131;SDS011;35149;51.196;6.204;2023-06-14T05:32:35;6.75;;;5.60;;
49131;SDS011;35149;51.196;6.204;2023-06-14T05:35:02;5.90;;;5.30;;
49131;SDS011;35149;51.196;6.204;2023-06-14T05:37:31;6.40;;;5.80;;
49131;SDS011;35149;51.196;6.204;2023-06-14T05:39:58;6.25;;;4.97;;
49131;SDS011;35149;51.196;6.204;2023-06-14T05:42:25;6.20;;;5.60;;
49131;SDS011;35149;51.196;6.204;2023-06-14T05:44:51;6.30;;;4.93;;
49131;SDS011;35149;51.196;6.204;2023-06-14T05:47:18;7.00;;;5.75;;
49131;SDS011;35149;51.196;6.204;2023-06-14T05:49:45;5.40;;;4.85;;
49131;SDS011;35149;51.196;6.204;2023-06-14T05:52:11;6.30;;;5.15;;
49131;SDS011;35149;51.196;6.204;2023-06-14T05:54:39;6.45;;;4.78;;
49131;SDS011;35149;51.196;6.204;2023-06-14T05:57:05;11.90;;;4.75;;
49131;SDS011;35149;51.196;6.204;2023-06-14T05:59:32;8.57;;;4.90;;
49131;SDS011;35149;51.196;6.204;2023-06-14T06:01:59;5.15;;;4.47;;
49131;SDS011;35149;51.196;6.204;2023-06-14T06:04:26;5.13;;;4.63;;
49131;SDS011;35149;51.196;6.204;2023-06-14T06:06:53;9.38;;;5.43;;
49131;SDS011;35149;51.196;6.204;2023-06-14T06:09:20;5.85;;;4.38;;
49131;SDS011;35149;51.196;6.204;2023-06-14T06:11:47;5.43;;;4.38;;
49131;SDS011;35149;51.196;6.204;2023-06-14T06:14:18;4.25;;;3.85;;
49131;SDS011;35149;51.196;6.204;2023-06-14T06:16:45;6.63;;;4.65;;
49131;SDS011;35149;51.196;6.204;2023-06-14T06:19:12;6.07;;;4.47;;
49131;SDS011;35149;51.196;6.204;2023-06-14T06:21:41;7.13;;;4.15;;
49131;SDS011;35149;51.196;6.204;2023-06-14T06:24:07;4.35;;;4.03;;
49131;SDS011;35149;51.196;6.204;2023-06-14T06:26:34;6.75;;;4.38;;
49131;SDS011;35149;51.196;6.204;2023-06-14T06:29:01;7.70;;;4.13;;
49131;SDS011;35149;51.196;6.204;2023-06-14T06:31:28;4.85;;;4.32;;
49131;SDS011;35149;51.196;6.204;2023-06-14T06:33:55;4.72;;;4.20;;
49131;SDS011;35149;51.196;6.204;2023-06-14T06:36:21;4.93;;;4.07;;
49131;SDS011;35149;51.196;6.204;2023-06-14T06:38:48;6.18;;;4.47;;
49131;SDS011;35149;51.196;6.204;2023-06-14T06:41:15;5.30;;;4.07;;
49131;SDS011;35149;51.196;6.204;2023-06-14T06:43:42;5.35;;;3.88;;
49131;SDS011;35149;51.196;6.204;2023-06-14T06:46:08;5.00;;;3.83;;
49131;SDS011;35149;51.196;6.204;2023-06-14T06:48:35;5.78;;;4.40;;
49131;SDS011;35149;51.196;6.204;2023-06-14T06:51:02;4.97;;;3.63;;
49131;SDS011;35149;51.196;6.204;2023-06-14T06:53:29;6.05;;;4.07;;
49131;SDS011;35149;51.196;6.204;2023-06-14T06:56:06;4.45;;;4.05;;
49131;SDS011;35149;51.196;6.204;2023-06-14T06:58:33;5.60;;;3.88;;
49131;SDS011;35149;51.196;6.204;2023-06-14T07:01:00;6.10;;;3.90;;
49131;SDS011;35149;51.196;6.204;2023-06-14T07:03:26;4.38;;;3.97;;
49131;SDS011;35149;51.196;6.204;2023-06-14T07:05:53;4.25;;;3.80;;
49131;SDS011;35149;51.196;6.204;2023-06-14T07:08:20;5.07;;;3.90;;
49131;SDS011;35149;51.196;6.204;2023-06-14T07:10:47;7.32;;;4.25;;
49131;SDS011;35149;51.196;6.204;2023-06-14T07:13:13;8.82;;;4.70;;
49131;SDS011;35149;51.196;6.204;2023-06-14T07:15:41;4.60;;;4.20;;
49131;SDS011;35149;51.196;6.204;2023-06-14T07:18:07;5.38;;;3.80;;
49131;SDS011;35149;51.196;6.204;2023-06-14T07:20:34;6.00;;;3.47;;
49131;SDS011;35149;51.196;6.204;2023-06-14T07:23:04;5.35;;;3.92;;
49131;SDS011;35149;51.196;6.204;2023-06-14T07:25:31;4.75;;;3.58;;
49131;SDS011;35149;51.196;6.204;2023-06-14T07:27:58;6.18;;;3.95;;
49131;SDS011;35149;51.196;6.204;2023-06-14T07:30:25;4.45;;;3.42;;
49131;SDS011;35149;51.196;6.204;2023-06-14T07:32:53;4.40;;;4.03;;
49131;SDS011;35149;51.196;6.204;2023-06-14T07:35:20;7.05;;;3.45;;
49131;SDS011;35149;51.196;6.204;2023-06-14T07:37:47;7.50;;;4.20;;
49131;SDS011;35149;51.196;6.204;2023-06-14T07:40:14;4.13;;;3.78;;
49131;SDS011;35149;51.196;6.204;2023-06-14T07:42:40;5.07;;;3.63;;
49131;SDS011;35149;51.196;6.204;2023-06-14T07:45:08;4.82;;;3.00;;
49131;SDS011;35149;51.196;6.204;2023-06-14T07:47:35;3.60;;;3.30;;
49131;SDS011;35149;51.196;6.204;2023-06-14T07:50:02;4.15;;;3.38;;
49131;SDS011;35149;51.196;6.204;2023-06-14T07:52:30;5.93;;;4.40;;
49131;SDS011;35149;51.196;6.204;2023-06-14T07:54:59;3.47;;;3.17;;
49131;SDS011;35149;51.196;6.204;2023-06-14T07:57:26;6.25;;;3.50;;
49131;SDS011;35149;51.196;6.204;2023-06-14T07:59:53;4.22;;;3.15;;
49131;SDS011;35149;51.196;6.204;2023-06-14T08:02:22;3.15;;;2.75;;
49131;SDS011;35149;51.196;6.204;2023-06-14T08:04:49;7.93;;;2.90;;
49131;SDS011;35149;51.196;6.204;2023-06-14T08:07:16;5.22;;;2.90;;
49131;SDS011;35149;51.196;6.204;2023-06-14T08:09:42;6.35;;;3.33;;
49131;SDS011;35149;51.196;6.204;2023-06-14T08:12:09;3.58;;;2.55;;
49131;SDS011;35149;51.196;6.204;2023-06-14T08:14:36;5.82;;;2.55;;
49131;SDS011;35149;51.196;6.204;2023-06-14T08:17:03;3.97;;;2.90;;
49131;SDS011;35149;51.196;6.204;2023-06-14T08:19:30;3.95;;;2.50;;
49131;SDS011;35149;51.196;6.204;2023-06-14T08:21:57;3.47;;;2.17;;
49131;SDS011;35149;51.196;6.204;2023-06-14T08:24:24;2.70;;;2.03;;
49131;SDS011;35149;51.196;6.204;2023-06-14T08:26:51;2.50;;;2.08;;
49131;SDS011;35149;51.196;6.204;2023-06-14T08:29:17;3.88;;;2.72;;
49131;SDS011;35149;51.196;6.204;2023-06-14T08:31:44;4.10;;;2.28;;
49131;SDS011;35149;51.196;6.204;2023-06-14T08:34:11;3.28;;;1.90;;
49131;SDS011;35149;51.196;6.204;2023-06-14T08:36:40;3.15;;;1.90;;
49131;SDS011;35149;51.196;6.204;2023-06-14T08:39:07;2.17;;;1.70;;
49131;SDS011;35149;51.196;6.204;2023-06-14T08:41:35;1.92;;;1.60;;
49131;SDS011;35149;51.196;6.204;2023-06-14T08:44:02;1.75;;;1.63;;
49131;SDS011;35149;51.196;6.204;2023-06-14T08:46:32;2.17;;;1.50;;
49131;SDS011;35149;51.196;6.204;2023-06-14T08:49:00;1.60;;;1.50;;
49131;SDS011;35149;51.196;6.204;2023-06-14T08:51:31;2.28;;;1.25;;
49131;SDS011;35149;51.196;6.204;2023-06-14T08:54:00;2.53;;;1.30;;
49131;SDS011;35149;51.196;6.204;2023-06-14T08:56:28;2.53;;;1.25;;
49131;SDS011;35149;51.196;6.204;2023-06-14T08:58:56;2.22;;;1.17;;
49131;SDS011;35149;51.196;6.204;2023-06-14T09:01:33;1.85;;;1.27;;
49131;SDS011;35149;51.196;6.204;2023-06-14T09:04:00;2.25;;;1.40;;
49131;SDS011;35149;51.196;6.204;2023-06-14T09:06:28;1.30;;;1.20;;
49131;SDS011;35149;51.196;6.204;2023-06-14T09:08:55;1.50;;;1.25;;
49131;SDS011;35149;51.196;6.204;2023-06-14T09:11:25;2.67;;;1.40;;
49131;SDS011;35149;51.196;6.204;2023-06-14T09:13:52;1.30;;;1.20;;
49131;SDS011;35149;51.196;6.204;2023-06-14T09:16:19;3.58;;;1.52;;
49131;SDS011;35149;51.196;6.204;2023-06-14T09:18:49;3.13;;;1.48;;
49131;SDS011;35149;51.196;6.204;2023-06-14T09:21:16;1.48;;;1.05;;
49131;SDS011;35149;51.196;6.204;2023-06-14T09:23:44;1.67;;;1.58;;
49131;SDS011;35149;51.196;6.204;2023-06-14T09:26:15;3.80;;;1.33;;
49131;SDS011;35149;51.196;6.204;2023-06-14T09:28:44;1.75;;;1.40;;
49131;SDS011;35149;51.196;6.204;2023-06-14T09:31:16;3.67;;;1.50;;
49131;SDS011;35149;51.196;6.204;2023-06-14T09:33:44;1.38;;;1.00;;
49131;SDS011;35149;51.196;6.204;2023-06-14T09:36:15;2.63;;;1.20;;
49131;SDS011;35149;51.196;6.204;2023-06-14T09:38:59;1.08;;;1.05;;
49131;SDS011;35149;51.196;6.204;2023-06-14T09:41:33;1.33;;;1.23;;
49131;SDS011;35149;51.196;6.204;2023-06-14T09:44:08;1.50;;;1.27;;
49131;SDS011;35149;51.196;6.204;2023-06-14T09:46:41;3.00;;;1.58;;
49131;SDS011;35149;51.196;6.204;2023-06-14T09:49:08;1.40;;;1.10;;
49131;SDS011;35149;51.196;6.204;2023-06-14T09:51:36;1.60;;;1.50;;
49131;SDS011;35149;51.196;6.204;2023-06-14T09:54:11;2.08;;;1.20;;
49131;SDS011;35149;51.196;6.204;2023-06-14T09:56:44;1.50;;;1.40;;
49131;SDS011;35149;51.196;6.204;2023-06-14T09:59:12;1.75;;;1.52;;
49131;SDS011;35149;51.196;6.204;2023-06-14T10:01:41;1.58;;;1.48;;
49131;SDS011;35149;51.196;6.204;2023-06-14T10:04:09;1.90;;;1.70;;
49131;SDS011;35149;51.196;6.204;2023-06-14T10:06:39;1.75;;;1.63;;
49131;SDS011;35149;51.196;6.204;2023-06-14T10:09:08;2.15;;;1.55;;
49131;SDS011;35149;51.196;6.204;2023-06-14T10:11:36;1.83;;;1.65;;
49131;SDS011;35149;51.196;6.204;2023-06-14T10:14:09;1.77;;;1.40;;
49131;SDS011;35149;51.196;6.204;2023-06-14T10:17:00;2.00;;;1.38;;
49131;SDS011;35149;51.196;6.204;2023-06-14T10:19:34;1.75;;;1.60;;
49131;SDS011;35149;51.196;6.204;2023-06-14T10:22:19;2.25;;;1.52;;
49131;SDS011;35149;51.196;6.204;2023-06-14T10:24:52;2.03;;;1.52;;
49131;SDS011;35149;51.196;6.204;2023-06-14T10:27:18;2.38;;;1.45;;
49131;SDS011;35149;51.196;6.204;2023-06-14T10:32:22;3.97;;;1.85;;
49131;SDS011;35149;51.196;6.204;2023-06-14T10:34:59;1.97;;;1.60;;
49131;SDS011;35149;51.196;6.204;2023-06-14T10:37:31;8.25;;;2.13;;
49131;SDS011;35149;51.196;6.204;2023-06-14T10:39:58;2.35;;;1.92;;
49131;SDS011;35149;51.196;6.204;2023-06-14T10:42:31;3.25;;;1.90;;
49131;SDS011;35149;51.196;6.204;2023-06-14T10:44:58;2.85;;;1.73;;
49131;SDS011;35149;51.196;6.204;2023-06-14T10:47:32;1.65;;;1.48;;
49131;SDS011;35149;51.196;6.204;2023-06-14T10:52:37;5.82;;;2.60;;
49131;SDS011;35149;51.196;6.204;2023-06-14T10:57:42;4.85;;;1.65;;
49131;SDS011;35149;51.196;6.204;2023-06-14T11:00:22;2.10;;;1.90;;
49131;SDS011;35149;51.196;6.204;2023-06-14T11:11:00;1.80;;;1.70;;
49131;SDS011;35149;51.196;6.204;2023-06-14T11:13:32;2.13;;;1.90;;
49131;SDS011;35149;51.196;6.204;2023-06-14T11:15:59;2.17;;;1.50;;
49131;SDS011;35149;51.196;6.204;2023-06-14T11:18:26;3.05;;;2.03;;
49131;SDS011;35149;51.196;6.204;2023-06-14T11:20:54;2.25;;;1.98;;
49131;SDS011;35149;51.196;6.204;2023-06-14T11:23:21;2.42;;;1.80;;
49131;SDS011;35149;51.196;6.204;2023-06-14T11:25:50;1.75;;;1.55;;
49131;SDS011;35149;51.196;6.204;2023-06-14T11:28:17;2.38;;;1.65;;
49131;SDS011;35149;51.196;6.204;2023-06-14T11:30:46;1.52;;;1.42;;
49131;SDS011;35149;51.196;6.204;2023-06-14T11:33:16;2.35;;;1.40;;
49131;SDS011;35149;51.196;6.204;2023-06-14T11:35:44;1.35;;;1.27;;
49131;SDS011;35149;51.196;6.204;2023-06-14T11:38:11;1.42;;;1.33;;
49131;SDS011;35149;51.196;6.204;2023-06-14T11:40:39;4.10;;;1.55;;
49131;SDS011;35149;51.196;6.204;2023-06-14T11:43:05;2.10;;;1.40;;
49131;SDS011;35149;51.196;6.204;2023-06-14T11:45:32;1.60;;;1.45;;
49131;SDS011;35149;51.196;6.204;2023-06-14T11:47:59;3.67;;;1.60;;
49131;SDS011;35149;51.196;6.204;2023-06-14T11:50:27;1.65;;;1.13;;
49131;SDS011;35149;51.196;6.204;2023-06-14T11:55:22;1.75;;;1.45;;
49131;SDS011;35149;51.196;6.204;2023-06-14T11:57:49;3.22;;;1.60;;
49131;SDS011;35149;51.196;6.204;2023-06-14T12:00:16;2.40;;;1.55;;
49131;SDS011;35149;51.196;6.204;2023-06-14T12:02:51;2.55;;;1.52;;
49131;SDS011;35149;51.196;6.204;2023-06-14T12:05:22;1.25;;;1.15;;
49131;SDS011;35149;51.196;6.204;2023-06-14T12:07:49;2.92;;;1.27;;
49131;SDS011;35149;51.196;6.204;2023-06-14T12:10:16;2.05;;;1.35;;
49131;SDS011;35149;51.196;6.204;2023-06-14T12:12:43;3.17;;;1.65;;
49131;SDS011;35149;51.196;6.204;2023-06-14T12:15:10;3.45;;;1.17;;
49131;SDS011;35149;51.196;6.204;2023-06-14T12:17:38;2.30;;;1.10;;
49131;SDS011;35149;51.196;6.204;2023-06-14T12:20:09;1.27;;;1.17;;
49131;SDS011;35149;51.196;6.204;2023-06-14T12:22:46;1.13;;;1.05;;
49131;SDS011;35149;51.196;6.204;2023-06-14T12:25:23;2.13;;;0.90;;
49131;SDS011;35149;51.196;6.204;2023-06-14T12:27:54;3.47;;;1.45;;
49131;SDS011;35149;51.196;6.204;2023-06-14T12:30:21;3.55;;;1.30;;
49131;SDS011;35149;51.196;6.204;2023-06-14T12:32:47;2.38;;;1.08;;
49131;SDS011;35149;51.196;6.204;2023-06-14T12:35:15;1.25;;;0.90;;
49131;SDS011;35149;51.196;6.204;2023-06-14T12:37:42;1.45;;;1.15;;
49131;SDS011;35149;51.196;6.204;2023-06-14T12:40:09;1.88;;;1.20;;
49131;SDS011;35149;51.196;6.204;2023-06-14T12:42:38;1.27;;;1.13;;
49131;SDS011;35149;51.196;6.204;2023-06-14T12:45:05;1.60;;;0.73;;
49131;SDS011;35149;51.196;6.204;2023-06-14T12:47:32;2.00;;;0.88;;
49131;SDS011;35149;51.196;6.204;2023-06-14T12:49:58;1.35;;;1.10;;
49131;SDS011;35149;51.196;6.204;2023-06-14T12:52:26;2.13;;;1.20;;
49131;SDS011;35149;51.196;6.204;2023-06-14T12:54:53;1.30;;;0.80;;
49131;SDS011;35149;51.196;6.204;2023-06-14T12:57:22;1.23;;;1.13;;
49131;SDS011;35149;51.196;6.204;2023-06-14T12:59:49;1.45;;;1.30;;
49131;SDS011;35149;51.196;6.204;2023-06-14T13:02:16;1.08;;;1.08;;
49131;SDS011;35149;51.196;6.204;2023-06-14T13:04:45;3.15;;;1.17;;
49131;SDS011;35149;51.196;6.204;2023-06-14T13:07:11;2.65;;;1.48;;
49131;SDS011;35149;51.196;6.204;2023-06-14T13:09:38;2.95;;;1.38;;
49131;SDS011;35149;51.196;6.204;2023-06-14T13:12:05;1.20;;;1.10;;
49131;SDS011;35149;51.196;6.204;2023-06-14T13:14:32;2.63;;;1.10;;
49131;SDS011;35149;51.196;6.204;2023-06-14T13:16:59;2.90;;;1.63;;
49131;SDS011;35149;51.196;6.204;2023-06-14T13:19:26;1.85;;;1.17;;
49131;SDS011;35149;51.196;6.204;2023-06-14T13:21:53;2.03;;;1.40;;
49131;SDS011;35149;51.196;6.204;2023-06-14T13:24:19;1.50;;;1.40;;
49131;SDS011;35149;51.196;6.204;2023-06-14T13:26:46;1.70;;;1.35;;
49131;SDS011;35149;51.196;6.204;2023-06-14T13:29:12;2.03;;;1.48;;
49131;SDS011;35149;51.196;6.204;2023-06-14T13:31:39;5.07;;;1.27;;
49131;SDS011;35149;51.196;6.204;2023-06-14T13:34:08;1.48;;;1.38;;
49131;SDS011;35149;51.196;6.204;2023-06-14T13:36:35;3.72;;;1.00;;
49131;SDS011;35149;51.196;6.204;2023-06-14T13:39:02;3.63;;;1.40;;
49131;SDS011;35149;51.196;6.204;2023-06-14T13:41:29;4.13;;;1.00;;
49131;SDS011;35149;51.196;6.204;2023-06-14T13:43:58;2.90;;;1.05;;
49131;SDS011;35149;51.196;6.204;2023-06-14T13:46:25;4.22;;;0.98;;
49131;SDS011;35149;51.196;6.204;2023-06-14T13:48:52;3.35;;;0.95;;
49131;SDS011;35149;51.196;6.204;2023-06-14T13:51:18;1.13;;;1.10;;
49131;SDS011;35149;51.196;6.204;2023-06-14T13:53:47;1.77;;;0.90;;
49131;SDS011;35149;51.196;6.204;2023-06-14T13:56:15;2.38;;;0.98;;
49131;SDS011;35149;51.196;6.204;2023-06-14T13:58:42;1.67;;;0.82;;
49131;SDS011;35149;51.196;6.204;2023-06-14T14:01:08;0.60;;;0.60;;
49131;SDS011;35149;51.196;6.204;2023-06-14T14:03:35;1.40;;;0.90;;
49131;SDS011;35149;51.196;6.204;2023-06-14T14:06:03;0.93;;;0.88;;
49131;SDS011;35149;51.196;6.204;2023-06-14T14:08:30;1.90;;;0.75;;
49131;SDS011;35149;51.196;6.204;2023-06-14T14:10:57;1.48;;;0.70;;
49131;SDS011;35149;51.196;6.204;2023-06-14T14:13:24;1.17;;;0.70;;
49131;SDS011;35149;51.196;6.204;2023-06-14T14:15:51;3.53;;;0.70;;
49131;SDS011;35149;51.196;6.204;2023-06-14T14:18:18;0.75;;;0.75;;
49131;SDS011;35149;51.196;6.204;2023-06-14T14:20:48;1.63;;;1.08;;
49131;SDS011;35149;51.196;6.204;2023-06-14T14:23:16;2.47;;;0.80;;
49131;SDS011;35149;51.196;6.204;2023-06-14T14:25:45;0.88;;;0.55;;
49131;SDS011;35149;51.196;6.204;2023-06-14T14:28:16;1.77;;;0.90;;
49131;SDS011;35149;51.196;6.204;2023-06-14T14:30:45;1.10;;;0.80;;
49131;SDS011;35149;51.196;6.204;2023-06-14T14:33:13;0.80;;;0.70;;
49131;SDS011;35149;51.196;6.204;2023-06-14T14:35:44;1.25;;;0.70;;
49131;SDS011;35149;51.196;6.204;2023-06-14T14:40:43;2.08;;;0.70;;
49131;SDS011;35149;51.196;6.204;2023-06-14T14:43:12;1.63;;;0.70;;
49131;SDS011;35149;51.196;6.204;2023-06-14T14:45:42;2.53;;;0.82;;
49131;SDS011;35149;51.196;6.204;2023-06-14T14:48:13;0.90;;;0.73;;
49131;SDS011;35149;51.196;6.204;2023-06-14T14:50:42;2.15;;;0.90;;
49131;SDS011;35149;51.196;6.204;2023-06-14T14:53:13;0.90;;;0.70;;
49131;SDS011;35149;51.196;6.204;2023-06-14T14:55:44;1.73;;;0.93;;
49131;SDS011;35149;51.196;6.204;2023-06-14T14:58:14;0.65;;;0.65;;
49131;SDS011;35149;51.196;6.204;2023-06-14T15:00:46;0.73;;;0.70;;
49131;SDS011;35149;51.196;6.204;2023-06-14T15:03:15;1.03;;;0.70;;
49131;SDS011;35149;51.196;6.204;2023-06-14T15:05:44;0.82;;;0.82;;
49131;SDS011;35149;51.196;6.204;2023-06-14T15:08:16;1.23;;;0.80;;
49131;SDS011;35149;51.196;6.204;2023-06-14T15:10:42;1.40;;;0.60;;
49131;SDS011;35149;51.196;6.204;2023-06-14T15:13:14;1.17;;;0.85;;
49131;SDS011;35149;51.196;6.204;2023-06-14T15:15:41;0.75;;;0.70;;
49131;SDS011;35149;51.196;6.204;2023-06-14T15:18:08;0.95;;;0.77;;
49131;SDS011;35149;51.196;6.204;2023-06-14T15:20:36;2.45;;;0.73;;
49131;SDS011;35149;51.196;6.204;2023-06-14T15:23:05;1.75;;;0.90;;
49131;SDS011;35149;51.196;6.204;2023-06-14T15:25:33;1.75;;;0.73;;